sensor_id;sensor_type;location;lat;lon;timestamp;pressure;altitude;pressure_sealevel;temperature;humidity
65227;BME280;51805;49.012;12.104;2023-03-04T00:01:36;98158.19;;;22.24;43.32
65227;BME280;51805;49.012;12.104;2023-03-04T00:04:01;98156.56;;;22.18;43.58
65227;BME280;51805;49.012;12.104;2023-03-04T00:06:26;98147.38;;;22.19;43.60
65227;BME280;51805;49.012;12.104;2023-03-04T00:08:51;98150.63;;;22.21;43.55
65227;BME280;51805;49.012;12.104;2023-03-04T00:11:17;98148.72;;;22.22;43.45
65227;BME280;51805;49.012;12.104;2023-03-04T00:13:42;98155.50;;;22.19;43.66
65227;BME280;51805;49.012;12.104;2023-03-04T00:16:07;98152.81;;;22.19;43.47
65227;BME280;51805;49.012;12.104;2023-03-04T00:18:32;98146.84;;;22.17;43.63
65227;BME280;51805;49.012;12.104;2023-03-04T00:20:57;98153.88;;;22.18;43.47
65227;BME280;51805;49.012;12.104;2023-03-04T00:23:22;98155.50;;;22.19;43.44
65227;BME280;51805;49.012;12.104;2023-03-04T00:25:47;98166.34;;;22.19;43.34
65227;BME280;51805;49.012;12.104;2023-03-04T00:28:12;98151.72;;;22.15;43.70
65227;BME280;51805;49.012;12.104;2023-03-04T00:30:38;98156.56;;;22.18;43.44
65227;BME280;51805;49.012;12.104;2023-03-04T00:33:03;98158.47;;;22.18;43.50
65227;BME280;51805;49.012;12.104;2023-03-04T00:35:28;98145.75;;;22.13;43.53
65227;BME280;51805;49.012;12.104;2023-03-04T00:37:53;98153.34;;;22.11;43.68
65227;BME280;51805;49.012;12.104;2023-03-04T00:40:18;98151.16;;;22.13;43.53
65227;BME280;51805;49.012;12.104;2023-03-04T00:42:43;98140.34;;;22.18;43.29
65227;BME280;51805;49.012;12.104;2023-03-04T00:45:09;98143.84;;;22.14;43.60
65227;BME280;51805;49.012;12.104;2023-03-04T00:47:34;98145.75;;;22.13;43.50
65227;BME280;51805;49.012;12.104;2023-03-04T00:49:59;98146.84;;;22.12;43.49
65227;BME280;51805;49.012;12.104;2023-03-04T00:52:24;98144.13;;;22.12;43.37
65227;BME280;51805;49.012;12.104;2023-03-04T00:54:49;98144.69;;;22.09;43.44
65227;BME280;51805;49.012;12.104;2023-03-04T00:57:15;98147.09;;;22.11;43.37
65227;BME280;51805;49.012;12.104;2023-03-04T00:59:40;98148.47;;;22.08;43.65
65227;BME280;51805;49.012;12.104;2023-03-04T01:02:05;98141.19;;;22.04;43.70
65227;BME280;51805;49.012;12.104;2023-03-04T01:04:30;98140.34;;;22.03;43.60
65227;BME280;51805;49.012;12.104;2023-03-04T01:06:55;98134.94;;;22.03;43.60
65227;BME280;51805;49.012;12.104;2023-03-04T01:09:20;98133.06;;;22.04;43.54
65227;BME280;51805;49.012;12.104;2023-03-04T01:11:45;98131.13;;;22.04;43.59
65227;BME280;51805;49.012;12.104;2023-03-04T01:14:11;98133.31;;;22.02;43.60
65227;BME280;51805;49.012;12.104;2023-03-04T01:16:36;98126.00;;;21.98;43.72
65227;BME280;51805;49.012;12.104;2023-03-04T01:19:01;98128.69;;;21.98;43.64
65227;BME280;51805;49.012;12.104;2023-03-04T01:21:26;98132.22;;;21.98;43.65
65227;BME280;51805;49.012;12.104;2023-03-04T01:23:51;98127.91;;;21.97;43.65
65227;BME280;51805;49.012;12.104;2023-03-04T01:26:16;98127.63;;;21.99;43.62
65227;BME280;51805;49.012;12.104;2023-03-04T01:28:41;98127.63;;;21.99;43.75
65227;BME280;51805;49.012;12.104;2023-03-04T01:31:07;98128.44;;;21.94;43.68
65227;BME280;51805;49.012;12.104;2023-03-04T01:33:32;98120.88;;;21.91;43.84
65227;BME280;51805;49.012;12.104;2023-03-04T01:35:57;98113.28;;;21.93;43.65
65227;BME280;51805;49.012;12.104;2023-03-04T01:38:22;98123.56;;;21.96;43.73
65227;BME280;51805;49.012;12.104;2023-03-04T01:40:48;98121.41;;;21.93;43.70
65227;BME280;51805;49.012;12.104;2023-03-04T01:43:15;98118.97;;;21.92;43.83
65227;BME280;51805;49.012;12.104;2023-03-04T01:45:42;98118.72;;;21.88;43.98
65227;BME280;51805;49.012;12.104;2023-03-04T01:48:08;98119.78;;;21.87;43.72
65227;BME280;51805;49.012;12.104;2023-03-04T01:50:34;98120.88;;;21.91;43.86
65227;BME280;51805;49.012;12.104;2023-03-04T01:52:59;98121.41;;;21.88;43.67
65227;BME280;51805;49.012;12.104;2023-03-04T01:55:25;98117.06;;;21.87;43.80
65227;BME280;51805;49.012;12.104;2023-03-04T01:57:51;98116.81;;;21.89;43.68
65227;BME280;51805;49.012;12.104;2023-03-04T02:02:45;98106.53;;;21.81;43.84
65227;BME280;51805;49.012;12.104;2023-03-04T02:05:10;98107.88;;;21.83;43.89
65227;BME280;51805;49.012;12.104;2023-03-04T02:07:35;98108.44;;;21.80;43.86
65227;BME280;51805;49.012;12.104;2023-03-04T02:10:01;98108.41;;;21.75;43.93
65227;BME280;51805;49.012;12.104;2023-03-04T02:12:26;98112.22;;;21.79;43.82
65227;BME280;51805;49.012;12.104;2023-03-04T02:14:51;98108.41;;;21.75;43.96
65227;BME280;51805;49.012;12.104;2023-03-04T02:17:16;98107.84;;;21.73;43.93
65227;BME280;51805;49.012;12.104;2023-03-04T02:19:49;98105.19;;;21.78;43.79
65227;BME280;51805;49.012;12.104;2023-03-04T02:22:17;98109.47;;;21.74;43.93
65227;BME280;51805;49.012;12.104;2023-03-04T02:24:44;98108.38;;;21.70;44.01
65227;BME280;51805;49.012;12.104;2023-03-04T02:27:09;98109.47;;;21.74;43.94
65227;BME280;51805;49.012;12.104;2023-03-04T02:29:35;98115.16;;;21.68;44.12
65227;BME280;51805;49.012;12.104;2023-03-04T02:32:00;98112.44;;;21.63;44.28
65227;BME280;51805;49.012;12.104;2023-03-04T02:34:29;98105.69;;;21.65;44.20
65227;BME280;51805;49.012;12.104;2023-03-04T02:36:55;98112.72;;;21.66;44.04
65227;BME280;51805;49.012;12.104;2023-03-04T02:39:27;98107.84;;;21.63;44.22
65227;BME280;51805;49.012;12.104;2023-03-04T02:41:53;98108.41;;;21.65;43.96
65227;BME280;51805;49.012;12.104;2023-03-04T02:44:28;98109.47;;;21.64;44.17
65227;BME280;51805;49.012;12.104;2023-03-04T02:46:54;98099.19;;;21.61;44.25
65227;BME280;51805;49.012;12.104;2023-03-04T02:49:20;98096.47;;;21.61;44.22
65227;BME280;51805;49.012;12.104;2023-03-04T02:51:48;98095.97;;;21.59;44.19
65227;BME280;51805;49.012;12.104;2023-03-04T02:54:14;98097.31;;;21.67;44.05
65227;BME280;51805;49.012;12.104;2023-03-04T02:56:43;98092.72;;;21.62;44.21
65227;BME280;51805;49.012;12.104;2023-03-04T02:59:08;98103.53;;;21.57;44.21
65227;BME280;51805;49.012;12.104;2023-03-04T03:01:34;98093.25;;;21.59;44.22
65227;BME280;51805;49.012;12.104;2023-03-04T03:03:59;98102.44;;;21.58;44.33
65227;BME280;51805;49.012;12.104;2023-03-04T03:06:24;98104.06;;;21.54;44.27
65227;BME280;51805;49.012;12.104;2023-03-04T03:08:49;98094.03;;;21.55;44.14
65227;BME280;51805;49.012;12.104;2023-03-04T03:11:14;98099.72;;;21.53;44.19
65227;BME280;51805;49.012;12.104;2023-03-04T03:13:39;98104.06;;;21.54;44.05
65227;BME280;51805;49.012;12.104;2023-03-04T03:16:04;98101.63;;;21.53;44.32
65227;BME280;51805;49.012;12.104;2023-03-04T03:18:30;98097.56;;;21.50;44.35
65227;BME280;51805;49.012;12.104;2023-03-04T03:20:55;98099.19;;;21.51;44.22
65227;BME280;51805;49.012;12.104;2023-03-04T03:23:20;98098.38;;;21.51;44.23
65227;BME280;51805;49.012;12.104;2023-03-04T03:25:45;98102.97;;;21.50;44.18
65227;BME280;51805;49.012;12.104;2023-03-04T03:28:10;98093.78;;;21.51;44.22
65227;BME280;51805;49.012;12.104;2023-03-04T03:30:35;98102.16;;;21.50;44.26
65227;BME280;51805;49.012;12.104;2023-03-04T03:33:00;98094.31;;;21.48;44.21
65227;BME280;51805;49.012;12.104;2023-03-04T03:35:25;98097.03;;;21.48;44.31
65227;BME280;51805;49.012;12.104;2023-03-04T03:37:51;98092.97;;;21.51;44.20
65227;BME280;51805;49.012;12.104;2023-03-04T03:40:16;98091.88;;;21.47;44.05
65227;BME280;51805;49.012;12.104;2023-03-04T03:42:41;98092.69;;;21.47;44.27
65227;BME280;51805;49.012;12.104;2023-03-04T03:45:06;98087.81;;;21.44;44.15
65227;BME280;51805;49.012;12.104;2023-03-04T03:47:31;98086.75;;;21.45;44.30
65227;BME280;51805;49.012;12.104;2023-03-04T03:49:57;98089.72;;;21.43;44.15
65227;BME280;51805;49.012;12.104;2023-03-04T03:52:22;98080.78;;;21.43;44.16
65227;BME280;51805;49.012;12.104;2023-03-04T03:54:47;98083.50;;;21.43;44.32
65227;BME280;51805;49.012;12.104;2023-03-04T03:57:12;98080.25;;;21.41;44.17
65227;BME280;51805;49.012;12.104;2023-03-04T03:59:37;98076.75;;;21.40;44.24
65227;BME280;51805;49.012;12.104;2023-03-04T04:02:02;98075.94;;;21.40;44.11
65227;BME280;51805;49.012;12.104;2023-03-04T04:04:27;98083.22;;;21.39;44.16
65227;BME280;51805;49.012;12.104;2023-03-04T04:06:52;98083.22;;;21.39;44.27
65227;BME280;51805;49.012;12.104;2023-03-04T04:09:18;98081.88;;;21.37;44.43
65227;BME280;51805;49.012;12.104;2023-03-04T04:11:43;98082.41;;;21.34;44.27
65227;BME280;51805;49.012;12.104;2023-03-04T04:14:10;98082.41;;;21.34;44.46
65227;BME280;51805;49.012;12.104;2023-03-04T04:16:35;98087.53;;;21.35;44.29
65227;BME280;51805;49.012;12.104;2023-03-04T04:19:00;98082.41;;;21.34;44.16
65227;BME280;51805;49.012;12.104;2023-03-04T04:21:25;98088.34;;;21.36;44.44
65227;BME280;51805;49.012;12.104;2023-03-04T04:23:51;98087.81;;;21.34;44.32
65227;BME280;51805;49.012;12.104;2023-03-04T04:26:16;98086.16;;;21.33;44.33
65227;BME280;51805;49.012;12.104;2023-03-04T04:28:41;98089.97;;;21.32;44.21
65227;BME280;51805;49.012;12.104;2023-03-04T04:31:06;98082.69;;;21.32;44.43
65227;BME280;51805;49.012;12.104;2023-03-04T04:33:32;98087.53;;;21.30;44.21
65227;BME280;51805;49.012;12.104;2023-03-04T04:35:57;98082.94;;;21.31;44.35
65227;BME280;51805;49.012;12.104;2023-03-04T04:38:22;98065.59;;;21.12;44.45
65227;BME280;51805;49.012;12.104;2023-03-04T04:40:47;98082.41;;;21.29;44.15
65227;BME280;51805;49.012;12.104;2023-03-04T04:43:12;98085.09;;;21.29;44.41
65227;BME280;51805;49.012;12.104;2023-03-04T04:45:37;98082.41;;;21.29;44.27
65227;BME280;51805;49.012;12.104;2023-03-04T04:48:02;98079.97;;;21.27;44.21
65227;BME280;51805;49.012;12.104;2023-03-04T04:50:28;98086.19;;;21.28;44.26
65227;BME280;51805;49.012;12.104;2023-03-04T04:52:53;98090.78;;;21.27;44.27
65227;BME280;51805;49.012;12.104;2023-03-04T04:55:18;98091.03;;;21.26;44.12
65227;BME280;51805;49.012;12.104;2023-03-04T04:57:43;98086.47;;;21.26;44.33
65227;BME280;51805;49.012;12.104;2023-03-04T05:00:09;98091.03;;;21.26;44.24
65227;BME280;51805;49.012;12.104;2023-03-04T05:02:34;98090.78;;;21.27;44.43
65227;BME280;51805;49.012;12.104;2023-03-04T05:04:59;98085.91;;;21.24;44.35
65227;BME280;51805;49.012;12.104;2023-03-04T05:07:24;98083.47;;;21.23;44.46
65227;BME280;51805;49.012;12.104;2023-03-04T05:09:50;98085.91;;;21.24;44.73
65227;BME280;51805;49.012;12.104;2023-03-04T05:12:15;98090.22;;;21.25;44.77
65227;BME280;51805;49.012;12.104;2023-03-04T05:14:42;98088.88;;;21.23;44.91
65227;BME280;51805;49.012;12.104;2023-03-04T05:17:07;98084.28;;;21.23;44.81
65227;BME280;51805;49.012;12.104;2023-03-04T05:19:32;98083.47;;;21.23;44.76
65227;BME280;51805;49.012;12.104;2023-03-04T05:21:57;98089.97;;;21.22;44.99
65227;BME280;51805;49.012;12.104;2023-03-04T05:24:22;98097.81;;;21.23;44.90
65227;BME280;51805;49.012;12.104;2023-03-04T05:26:47;98098.06;;;21.22;45.13
65227;BME280;51805;49.012;12.104;2023-03-04T05:29:12;98100.78;;;21.22;45.07
65227;BME280;51805;49.012;12.104;2023-03-04T05:31:37;98095.38;;;21.22;45.18
65227;BME280;51805;49.012;12.104;2023-03-04T05:34:03;98100.78;;;21.22;45.07
65227;BME280;51805;49.012;12.104;2023-03-04T05:36:28;98105.09;;;21.23;45.09
65227;BME280;51805;49.012;12.104;2023-03-04T05:38:53;98106.44;;;21.25;45.05
65227;BME280;51805;49.012;12.104;2023-03-04T05:41:18;98109.97;;;21.26;44.90
65227;BME280;51805;49.012;12.104;2023-03-04T05:43:43;98108.88;;;21.27;45.13
65227;BME280;51805;49.012;12.104;2023-03-04T05:46:12;98102.41;;;21.28;45.05
65227;BME280;51805;49.012;12.104;2023-03-04T05:48:37;98107.53;;;21.29;45.19
65227;BME280;51805;49.012;12.104;2023-03-04T05:51:02;98104.84;;;21.29;45.06
65227;BME280;51805;49.012;12.104;2023-03-04T05:53:28;98108.34;;;21.30;45.29
65227;BME280;51805;49.012;12.104;2023-03-04T05:55:53;98109.44;;;21.34;45.22
65227;BME280;51805;49.012;12.104;2023-03-04T05:58:18;98107.25;;;21.36;45.04
65227;BME280;51805;49.012;12.104;2023-03-04T06:00:44;98112.16;;;21.39;44.81
65227;BME280;51805;49.012;12.104;2023-03-04T06:03:16;98117.03;;;21.42;44.86
65227;BME280;51805;49.012;12.104;2023-03-04T06:05:41;98119.19;;;21.45;44.91
65227;BME280;51805;49.012;12.104;2023-03-04T06:08:06;98123.50;;;21.46;45.05
65227;BME280;51805;49.012;12.104;2023-03-04T06:10:31;98117.56;;;21.49;45.00
65227;BME280;51805;49.012;12.104;2023-03-04T06:12:57;98124.59;;;21.50;44.91
65227;BME280;51805;49.012;12.104;2023-03-04T06:15:22;98123.53;;;21.51;44.90
65227;BME280;51805;49.012;12.104;2023-03-04T06:17:47;98124.59;;;21.50;44.75
65227;BME280;51805;49.012;12.104;2023-03-04T06:20:12;98128.94;;;21.56;44.82
65227;BME280;51805;49.012;12.104;2023-03-04T06:22:37;98137.59;;;21.58;44.76
65227;BME280;51805;49.012;12.104;2023-03-04T06:25:03;98138.69;;;21.62;44.61
65227;BME280;51805;49.012;12.104;2023-03-04T06:27:28;98136.25;;;21.61;44.56
65227;BME280;51805;49.012;12.104;2023-03-04T06:29:53;98144.09;;;21.62;44.71
65227;BME280;51805;49.012;12.104;2023-03-04T06:32:19;98145.72;;;21.63;44.50
65227;BME280;51805;49.012;12.104;2023-03-04T06:34:44;98155.16;;;21.66;44.39
65227;BME280;51805;49.012;12.104;2023-03-04T06:37:09;98154.13;;;21.67;44.45
65227;BME280;51805;49.012;12.104;2023-03-04T06:39:34;98158.97;;;21.70;44.49
65227;BME280;51805;49.012;12.104;2023-03-04T06:41:59;98161.94;;;21.73;44.38
65227;BME280;51805;49.012;12.104;2023-03-04T06:44:24;98163.03;;;21.72;44.39
65227;BME280;51805;49.012;12.104;2023-03-04T06:46:49;98165.47;;;21.74;44.47
65227;BME280;51805;49.012;12.104;2023-03-04T06:49:14;98167.34;;;21.73;44.50
65227;BME280;51805;49.012;12.104;2023-03-04T06:51:40;98174.16;;;21.76;44.42
65227;BME280;51805;49.012;12.104;2023-03-04T06:54:05;98174.44;;;21.79;44.13
65227;BME280;51805;49.012;12.104;2023-03-04T06:56:30;98180.38;;;21.81;44.07
65227;BME280;51805;49.012;12.104;2023-03-04T06:58:55;98177.69;;;21.86;43.98
65227;BME280;51805;49.012;12.104;2023-03-04T07:01:22;98182.56;;;21.89;44.01
65227;BME280;51805;49.012;12.104;2023-03-04T07:03:48;98186.34;;;21.88;44.16
65227;BME280;51805;49.012;12.104;2023-03-04T07:06:14;98188.78;;;21.95;43.89
65227;BME280;51805;49.012;12.104;2023-03-04T07:08:39;98184.75;;;21.97;43.84
65227;BME280;51805;49.012;12.104;2023-03-04T07:11:05;98190.94;;;22.03;43.96
65227;BME280;51805;49.012;12.104;2023-03-04T07:13:30;98196.66;;;22.06;43.87
65227;BME280;51805;49.012;12.104;2023-03-04T07:15:55;98195.84;;;22.11;43.60
65227;BME280;51805;49.012;12.104;2023-03-04T07:18:20;98197.19;;;22.18;43.46
65227;BME280;51805;49.012;12.104;2023-03-04T07:20:45;98205.84;;;22.20;43.57
65227;BME280;51805;49.012;12.104;2023-03-04T07:23:10;98213.44;;;22.23;43.38
65227;BME280;51805;49.012;12.104;2023-03-04T07:25:35;98212.88;;;22.21;43.59
65227;BME280;51805;49.012;12.104;2023-03-04T07:28:01;98215.31;;;22.23;43.38
65227;BME280;51805;49.012;12.104;2023-03-04T07:30:26;98219.94;;;22.22;43.46
65227;BME280;51805;49.012;12.104;2023-03-04T07:32:51;98221.00;;;22.21;43.49
65227;BME280;51805;49.012;12.104;2023-03-04T07:35:16;98222.66;;;22.22;43.70
65227;BME280;51805;49.012;12.104;2023-03-04T07:37:41;98231.56;;;22.23;43.55
65227;BME280;51805;49.012;12.104;2023-03-04T07:40:06;98233.47;;;22.22;43.61
65227;BME280;51805;49.012;12.104;2023-03-04T07:42:32;98233.75;;;22.21;43.66
65227;BME280;51805;49.012;12.104;2023-03-04T07:44:57;98241.59;;;22.22;43.66
65227;BME280;51805;49.012;12.104;2023-03-04T07:47:22;98238.88;;;22.22;43.55
65227;BME280;51805;49.012;12.104;2023-03-04T07:49:47;98239.69;;;22.23;43.54
65227;BME280;51805;49.012;12.104;2023-03-04T07:52:12;98243.75;;;22.25;43.46
65227;BME280;51805;49.012;12.104;2023-03-04T07:54:37;98244.56;;;22.26;43.59
65227;BME280;51805;49.012;12.104;2023-03-04T07:57:03;98242.66;;;22.26;43.63
65227;BME280;51805;49.012;12.104;2023-03-04T07:59:28;98239.97;;;22.26;43.58
65227;BME280;51805;49.012;12.104;2023-03-04T08:01:53;98244.28;;;22.27;43.54
65227;BME280;51805;49.012;12.104;2023-03-04T08:04:18;98246.72;;;22.29;43.41
65227;BME280;51805;49.012;12.104;2023-03-04T08:06:43;98249.16;;;22.30;43.38
65227;BME280;51805;49.012;12.104;2023-03-04T08:09:09;98254.56;;;22.35;43.42
65227;BME280;51805;49.012;12.104;2023-03-04T08:11:35;98249.72;;;22.37;43.27
65227;BME280;51805;49.012;12.104;2023-03-04T08:14:01;98257.28;;;22.35;43.27
65227;BME280;51805;49.012;12.104;2023-03-04T08:16:26;98256.75;;;22.38;43.40
65227;BME280;51805;49.012;12.104;2023-03-04T08:18:53;98258.38;;;22.39;43.37
65227;BME280;51805;49.012;12.104;2023-03-04T08:21:19;98262.72;;;22.40;43.25
65227;BME280;51805;49.012;12.104;2023-03-04T08:23:45;98262.44;;;22.42;43.15
65227;BME280;51805;49.012;12.104;2023-03-04T08:26:12;98266.25;;;22.41;43.17
65227;BME280;51805;49.012;12.104;2023-03-04T08:28:37;98254.31;;;22.42;43.17
65227;BME280;51805;49.012;12.104;2023-03-04T08:31:02;98260.56;;;22.42;43.25
65227;BME280;51805;49.012;12.104;2023-03-04T08:33:28;98261.06;;;22.44;43.21
65227;BME280;51805;49.012;12.104;2023-03-04T08:35:53;98258.91;;;22.46;43.26
65227;BME280;51805;49.012;12.104;2023-03-04T08:38:18;98256.47;;;22.45;43.29
65227;BME280;51805;49.012;12.104;2023-03-04T08:40:43;98263.00;;;22.44;43.27
65227;BME280;51805;49.012;12.104;2023-03-04T08:43:08;98263.25;;;22.47;43.24
65227;BME280;51805;49.012;12.104;2023-03-04T08:45:33;98260.53;;;22.47;43.23
65227;BME280;51805;49.012;12.104;2023-03-04T08:47:59;98262.19;;;22.48;43.10
65227;BME280;51805;49.012;12.104;2023-03-04T08:50:24;98256.75;;;22.48;43.07
65227;BME280;51805;49.012;12.104;2023-03-04T08:52:49;98255.41;;;22.51;42.99
65227;BME280;51805;49.012;12.104;2023-03-04T08:55:14;98255.16;;;22.52;43.16
65227;BME280;51805;49.012;12.104;2023-03-04T08:57:39;98253.78;;;22.55;43.04
65227;BME280;51805;49.012;12.104;2023-03-04T09:00:04;98261.13;;;22.54;43.06
65227;BME280;51805;49.012;12.104;2023-03-04T09:02:30;98251.91;;;22.55;42.97
65227;BME280;51805;49.012;12.104;2023-03-04T09:04:55;98251.91;;;22.55;43.19
65227;BME280;51805;49.012;12.104;2023-03-04T09:07:20;98258.13;;;22.56;43.02
65227;BME280;51805;49.012;12.104;2023-03-04T09:09:45;98257.84;;;22.57;42.98
65227;BME280;51805;49.012;12.104;2023-03-04T09:12:10;98258.38;;;22.59;43.06
65227;BME280;51805;49.012;12.104;2023-03-04T09:14:35;98262.72;;;22.60;42.91
65227;BME280;51805;49.012;12.104;2023-03-04T09:17:01;98256.50;;;22.60;43.07
65227;BME280;51805;49.012;12.104;2023-03-04T09:19:27;98256.22;;;22.61;43.04
65227;BME280;51805;49.012;12.104;2023-03-04T09:21:52;98258.66;;;22.63;42.92
65227;BME280;51805;49.012;12.104;2023-03-04T09:24:17;98261.09;;;22.64;42.86
65227;BME280;51805;49.012;12.104;2023-03-04T09:26:42;98258.38;;;22.64;42.85
65227;BME280;51805;49.012;12.104;2023-03-04T09:29:08;98257.31;;;22.65;42.88
65227;BME280;51805;49.012;12.104;2023-03-04T09:31:34;98255.69;;;22.64;42.99
65227;BME280;51805;49.012;12.104;2023-03-04T09:33:59;98257.03;;;22.67;42.88
65227;BME280;51805;49.012;12.104;2023-03-04T09:36:24;98266.78;;;22.68;42.87
65227;BME280;51805;49.012;12.104;2023-03-04T09:38:50;98259.47;;;22.68;42.85
65227;BME280;51805;49.012;12.104;2023-03-04T09:41:16;98259.47;;;22.68;42.97
65227;BME280;51805;49.012;12.104;2023-03-04T09:43:42;98262.72;;;22.70;42.84
65227;BME280;51805;49.012;12.104;2023-03-04T09:46:13;98260.81;;;22.71;42.95
65227;BME280;51805;49.012;12.104;2023-03-04T09:48:57;98266.25;;;22.71;42.90
65227;BME280;51805;49.012;12.104;2023-03-04T09:56:27;98274.91;;;22.73;42.93
65227;BME280;51805;49.012;12.104;2023-03-04T10:01:23;98273.00;;;22.73;42.86
65227;BME280;51805;49.012;12.104;2023-03-04T10:03:50;98270.84;;;22.75;42.60
65227;BME280;51805;49.012;12.104;2023-03-04T10:06:20;98277.88;;;22.76;42.76
65227;BME280;51805;49.012;12.104;2023-03-04T10:14:25;98270.56;;;22.77;42.89
65227;BME280;51805;49.012;12.104;2023-03-04T10:19:35;98266.75;;;22.78;42.81
65227;BME280;51805;49.012;12.104;2023-03-04T10:22:01;98267.59;;;22.78;42.79
65227;BME280;51805;49.012;12.104;2023-03-04T10:24:37;98260.53;;;22.77;42.79
65227;BME280;51805;49.012;12.104;2023-03-04T10:27:04;98264.59;;;22.80;42.74
65227;BME280;51805;49.012;12.104;2023-03-04T10:29:31;98265.41;;;22.80;42.86
65227;BME280;51805;49.012;12.104;2023-03-04T10:31:56;98268.94;;;22.81;42.68
65227;BME280;51805;49.012;12.104;2023-03-04T10:34:21;98264.31;;;22.81;42.83
65227;BME280;51805;49.012;12.104;2023-03-04T10:39:23;98262.16;;;22.83;42.83
65227;BME280;51805;49.012;12.104;2023-03-04T10:41:56;98268.41;;;22.84;42.72
65227;BME280;51805;49.012;12.104;2023-03-04T10:44:21;98262.72;;;22.85;42.85
65227;BME280;51805;49.012;12.104;2023-03-04T10:46:47;98262.16;;;22.83;42.78
65227;BME280;51805;49.012;12.104;2023-03-04T10:49:14;98272.72;;;22.85;42.78
65227;BME280;51805;49.012;12.104;2023-03-04T10:51:40;98272.44;;;22.86;42.79
65227;BME280;51805;49.012;12.104;2023-03-04T10:54:08;98261.88;;;22.85;42.65
65227;BME280;51805;49.012;12.104;2023-03-04T10:56:38;98256.47;;;22.85;42.71
65227;BME280;51805;49.012;12.104;2023-03-04T10:59:24;98263.78;;;22.84;42.93
65227;BME280;51805;49.012;12.104;2023-03-04T11:01:53;98261.59;;;22.86;42.74
65227;BME280;51805;49.012;12.104;2023-03-04T11:04:19;98258.06;;;22.86;42.91
65227;BME280;51805;49.012;12.104;2023-03-04T11:06:46;98253.47;;;22.86;42.78
65227;BME280;51805;49.012;12.104;2023-03-04T11:09:22;98249.66;;;22.87;42.69
65227;BME280;51805;49.012;12.104;2023-03-04T11:11:48;98246.97;;;22.87;42.79
65227;BME280;51805;49.012;12.104;2023-03-04T11:16:44;98240.47;;;22.88;42.72
65227;BME280;51805;49.012;12.104;2023-03-04T11:19:15;98241.25;;;22.89;42.59
65227;BME280;51805;49.012;12.104;2023-03-04T11:21:42;98236.66;;;22.89;42.81
65227;BME280;51805;49.012;12.104;2023-03-04T11:24:10;98234.78;;;22.90;42.77
65227;BME280;51805;49.012;12.104;2023-03-04T11:26:44;98232.34;;;22.88;42.71
65227;BME280;51805;49.012;12.104;2023-03-04T11:31:55;98226.66;;;22.90;42.78
65227;BME280;51805;49.012;12.104;2023-03-04T11:37:12;98228.00;;;22.92;42.68
65227;BME280;51805;49.012;12.104;2023-03-04T11:44:32;98227.16;;;22.92;42.76
65227;BME280;51805;49.012;12.104;2023-03-04T11:47:09;98222.28;;;22.94;42.67
65227;BME280;51805;49.012;12.104;2023-03-04T11:49:51;98214.97;;;22.94;42.70
65227;BME280;51805;49.012;12.104;2023-03-04T11:52:32;98213.34;;;22.93;42.75
65227;BME280;51805;49.012;12.104;2023-03-04T11:57:40;98210.63;;;22.93;42.71
65227;BME280;51805;49.012;12.104;2023-03-04T12:00:31;98205.75;;;22.95;42.72
65227;BME280;51805;49.012;12.104;2023-03-04T12:10:41;98196.00;;;22.94;42.71
65227;BME280;51805;49.012;12.104;2023-03-04T12:15:39;98182.19;;;22.96;42.80
65227;BME280;51805;49.012;12.104;2023-03-04T12:18:19;98176.75;;;22.96;42.64
65227;BME280;51805;49.012;12.104;2023-03-04T12:23:32;98175.38;;;22.98;42.72
65227;BME280;51805;49.012;12.104;2023-03-04T12:26:22;98165.09;;;23.00;42.56
65227;BME280;51805;49.012;12.104;2023-03-04T12:28:54;98162.38;;;23.00;42.67
65227;BME280;51805;49.012;12.104;2023-03-04T12:34:02;98168.88;;;22.99;42.72
65227;BME280;51805;49.012;12.104;2023-03-04T12:36:35;98159.13;;;22.98;42.74
65227;BME280;51805;49.012;12.104;2023-03-04T12:42:29;98152.59;;;22.99;42.75
65227;BME280;51805;49.012;12.104;2023-03-04T12:45:17;98139.59;;;22.96;42.72
65227;BME280;51805;49.012;12.104;2023-03-04T12:47:48;98149.63;;;23.01;42.67
65227;BME280;51805;49.012;12.104;2023-03-04T12:55:37;98137.97;;;23.00;42.75
65227;BME280;51805;49.012;12.104;2023-03-04T12:58:03;98144.22;;;23.01;42.70
65227;BME280;51805;49.012;12.104;2023-03-04T13:05:46;98139.88;;;23.00;42.74
65227;BME280;51805;49.012;12.104;2023-03-04T13:10:39;98134.16;;;23.01;42.56
65227;BME280;51805;49.012;12.104;2023-03-04T13:13:04;98140.94;;;23.04;42.91
65227;BME280;51805;49.012;12.104;2023-03-04T13:15:33;98139.31;;;23.03;42.70
65227;BME280;51805;49.012;12.104;2023-03-04T13:20:37;98136.31;;;23.04;42.79
65227;BME280;51805;49.012;12.104;2023-03-04T13:43:41;98129.28;;;23.03;42.66
65227;BME280;51805;49.012;12.104;2023-03-04T13:51:15;98121.69;;;23.06;42.71
65227;BME280;51805;49.012;12.104;2023-03-04T13:56:11;98115.75;;;23.03;42.79
65227;BME280;51805;49.012;12.104;2023-03-04T13:58:38;98116.28;;;23.06;42.75
65227;BME280;51805;49.012;12.104;2023-03-04T14:01:03;98120.88;;;23.05;42.59
65227;BME280;51805;49.012;12.104;2023-03-04T14:03:29;98122.50;;;23.06;42.66
65227;BME280;51805;49.012;12.104;2023-03-04T14:06:14;98108.66;;;23.08;42.69
65227;BME280;51805;49.012;12.104;2023-03-04T14:08:40;98113.56;;;23.06;42.77
65227;BME280;51805;49.012;12.104;2023-03-04T14:11:09;98111.13;;;23.04;42.72
65227;BME280;51805;49.012;12.104;2023-03-04T14:13:36;98116.28;;;23.06;42.83
65227;BME280;51805;49.012;12.104;2023-03-04T14:16:01;98109.22;;;23.04;42.72
65227;BME280;51805;49.012;12.104;2023-03-04T14:18:26;98110.03;;;23.05;42.63
65227;BME280;51805;49.012;12.104;2023-03-04T14:20:51;98107.88;;;23.07;42.69
65227;BME280;51805;49.012;12.104;2023-03-04T14:23:35;98103.22;;;23.08;42.73
65227;BME280;51805;49.012;12.104;2023-03-04T14:26:11;98106.75;;;23.08;42.76